createdAt,value
2019-05-30T00:01:15.657Z,13.60
2019-05-30T00:03:45.975Z,13.90
2019-05-30T00:06:16.351Z,13.60
2019-05-30T00:08:46.716Z,14.00
2019-05-30T00:11:17.000Z,14.00
2019-05-30T00:13:47.252Z,14.00
2019-05-30T00:16:17.510Z,13.90
2019-05-30T00:18:48.157Z,13.90
2019-05-30T00:21:18.473Z,13.80
2019-05-30T00:23:48.780Z,13.90
2019-05-30T00:26:19.163Z,13.90
2019-05-30T00:28:50.065Z,13.90
2019-05-30T00:31:20.271Z,14.10
2019-05-30T00:33:50.766Z,13.90
2019-05-30T00:36:21.155Z,13.70
2019-05-30T00:38:51.717Z,13.80
2019-05-30T00:41:22.363Z,13.70
2019-05-30T00:43:53.649Z,13.70
2019-05-30T00:46:23.987Z,14.10
2019-05-30T00:48:54.477Z,14.00
2019-05-30T00:51:25.077Z,13.90
2019-05-30T00:53:56.470Z,13.90
2019-05-30T00:56:27.187Z,13.90
2019-05-30T00:58:58.624Z,14.00
2019-05-30T01:01:28.998Z,13.90
2019-05-30T01:04:00.713Z,14.10
2019-05-30T01:06:33.239Z,14.10
2019-05-30T01:09:03.607Z,14.20
2019-05-30T01:11:34.244Z,14.10
2019-05-30T01:14:05.418Z,13.90
2019-05-30T01:16:36.253Z,14.00
2019-05-30T01:19:07.362Z,14.50
2019-05-30T01:21:37.751Z,14.50
2019-05-30T01:24:08.482Z,14.40
2019-05-30T01:26:38.846Z,14.20
2019-05-30T01:29:09.108Z,14.10
2019-05-30T01:31:39.763Z,14.30
2019-05-30T01:34:10.465Z,14.30
2019-05-30T01:36:41.544Z,14.40
2019-05-30T01:39:12.081Z,14.10
2019-05-30T01:41:42.675Z,14.20
2019-05-30T01:44:12.871Z,14.20
2019-05-30T01:46:43.247Z,14.20
2019-05-30T01:49:13.475Z,14.00
2019-05-30T01:51:44.147Z,14.30
2019-05-30T01:54:14.353Z,14.40
2019-05-30T01:56:44.745Z,14.40
2019-05-30T01:59:15.113Z,14.30
2019-05-30T02:01:45.678Z,14.30
2019-05-30T02:04:16.060Z,14.40
2019-05-30T02:06:46.754Z,14.20
2019-05-30T02:09:17.367Z,14.00
2019-05-30T02:11:47.656Z,14.30
2019-05-30T02:14:17.956Z,14.00
2019-05-30T02:16:48.325Z,14.20
2019-05-30T02:19:18.542Z,14.40
2019-05-30T02:21:48.809Z,14.20
2019-05-30T02:24:19.063Z,14.00
2019-05-30T02:26:49.295Z,14.00
2019-05-30T02:29:19.572Z,14.20
2019-05-30T02:31:49.833Z,14.50
2019-05-30T02:34:20.513Z,14.30
2019-05-30T02:36:50.834Z,14.30
2019-05-30T02:39:21.150Z,14.30
2019-05-30T02:41:51.598Z,14.30
2019-05-30T02:44:21.805Z,14.10
2019-05-30T02:46:55.545Z,14.10
2019-05-30T02:49:25.909Z,14.20
2019-05-30T02:51:56.831Z,14.50
2019-05-30T02:54:27.092Z,14.40
2019-05-30T02:56:57.323Z,14.40
2019-05-30T02:59:27.560Z,14.30
2019-05-30T03:02:01.702Z,14.30
2019-05-30T03:04:30.795Z,14.30
2019-05-30T03:07:01.991Z,14.60
2019-05-30T03:09:33.055Z,14.40
2019-05-30T03:12:04.246Z,14.40
2019-05-30T03:14:35.873Z,14.70
2019-05-30T03:17:09.128Z,14.50
2019-05-30T03:19:38.192Z,14.40
2019-05-30T03:22:09.490Z,14.30
2019-05-30T03:24:41.053Z,14.30
2019-05-30T03:27:12.419Z,14.20
2019-05-30T03:29:43.289Z,14.50
2019-05-30T03:33:00.934Z,14.40
2019-05-30T03:34:46.155Z,14.80
2019-05-30T03:37:28.031Z,14.50
2019-05-30T03:39:49.185Z,14.50
2019-05-30T03:42:19.822Z,14.70
2019-05-30T03:44:50.965Z,14.50
2019-05-30T03:47:27.534Z,14.60
2019-05-30T03:50:06.229Z,14.50
2019-05-30T03:52:36.656Z,14.60
2019-05-30T03:55:09.953Z,14.60
2019-05-30T03:57:48.948Z,14.50
2019-05-30T04:00:40.606Z,14.50
2019-05-30T04:03:29.468Z,14.30
2019-05-30T04:06:03.965Z,14.30
2019-05-30T04:08:36.988Z,14.10
2019-05-30T04:11:12.481Z,14.50
2019-05-30T04:13:50.499Z,14.60
2019-05-30T04:16:21.646Z,14.50
2019-05-30T04:18:52.356Z,14.70
2019-05-30T04:21:23.138Z,14.50
2019-05-30T04:23:53.715Z,14.50
2019-05-30T04:26:24.708Z,14.70
2019-05-30T04:28:57.381Z,14.90
2019-05-30T04:31:30.977Z,14.80
2019-05-30T04:34:01.844Z,14.70
2019-05-30T04:36:34.724Z,14.90
2019-05-30T04:39:11.105Z,14.80
2019-05-30T04:41:42.219Z,14.90
2019-05-30T04:44:14.481Z,14.90
2019-05-30T04:46:45.905Z,14.90
2019-05-30T04:49:18.651Z,14.80
2019-05-30T04:51:54.896Z,14.70
2019-05-30T04:54:26.095Z,14.90
2019-05-30T04:56:56.773Z,15.10
2019-05-30T04:59:27.784Z,14.90
2019-05-30T05:01:59.591Z,15.10
2019-05-30T05:04:30.949Z,15.00
2019-05-30T05:07:07.883Z,14.90
2019-05-30T05:09:38.413Z,15.20
2019-05-30T05:12:09.314Z,15.20
2019-05-30T05:14:40.337Z,14.90
2019-05-30T05:17:13.018Z,14.90
2019-05-30T05:19:43.688Z,14.80
2019-05-30T05:22:14.848Z,14.90
2019-05-30T05:24:46.049Z,14.50
2019-05-30T05:27:19.626Z,14.90
2019-05-30T05:29:51.956Z,15.10
2019-05-30T05:32:22.871Z,15.00
2019-05-30T05:34:53.552Z,15.10
2019-05-30T05:37:27.368Z,14.90
2019-05-30T05:39:58.032Z,14.90
2019-05-30T05:42:30.258Z,14.90
2019-05-30T05:45:01.004Z,14.90
2019-05-30T05:47:33.531Z,15.10
2019-05-30T05:50:04.405Z,15.10
2019-05-30T05:52:35.089Z,15.20
2019-05-30T05:55:08.188Z,14.90
2019-05-30T05:57:39.383Z,14.60
2019-05-30T06:00:10.402Z,14.90
2019-05-30T06:02:41.388Z,14.80
2019-05-30T06:05:12.258Z,14.80
2019-05-30T06:07:44.405Z,14.90
2019-05-30T06:10:15.343Z,14.80
2019-05-30T06:12:46.005Z,15.00
2019-05-30T06:15:17.287Z,15.00
2019-05-30T06:17:49.157Z,15.50
2019-05-30T06:20:21.231Z,15.00
2019-05-30T06:22:51.994Z,14.90
2019-05-30T06:25:25.156Z,15.10
2019-05-30T06:27:59.025Z,15.10
2019-05-30T06:30:32.707Z,15.00
2019-05-30T06:33:05.497Z,15.00
2019-05-30T06:35:37.983Z,14.90
2019-05-30T06:38:08.654Z,14.80
2019-05-30T06:40:39.881Z,14.80
2019-05-30T06:43:10.675Z,14.90
2019-05-30T06:45:41.748Z,15.20
2019-05-30T06:48:12.542Z,14.90
2019-05-30T06:50:43.097Z,15.10
2019-05-30T06:53:16.709Z,14.90
2019-05-30T06:55:49.139Z,15.10
2019-05-30T06:58:19.611Z,14.90
2019-05-30T07:00:50.780Z,15.00
2019-05-30T07:03:22.085Z,15.00
2019-05-30T07:05:54.849Z,15.00
2019-05-30T07:08:26.711Z,15.00
2019-05-30T07:10:58.220Z,15.00
2019-05-30T07:13:29.287Z,15.20
2019-05-30T07:16:02.510Z,15.10
2019-05-30T07:18:36.502Z,15.20
2019-05-30T07:21:06.914Z,15.00
2019-05-30T07:23:39.553Z,15.10
2019-05-30T07:26:09.847Z,15.00
2019-05-30T07:28:40.588Z,15.00
2019-05-30T07:31:11.114Z,15.00
2019-05-30T07:33:41.712Z,15.00
2019-05-30T07:36:15.255Z,15.10
2019-05-30T07:38:45.818Z,15.00
2019-05-30T07:41:16.609Z,14.90
2019-05-30T07:43:47.124Z,15.30
2019-05-30T07:46:19.523Z,15.50
2019-05-30T07:48:50.421Z,15.60
2019-05-30T07:51:24.507Z,15.80
2019-05-30T07:53:55.517Z,15.90
2019-05-30T07:56:26.938Z,15.70
2019-05-30T07:58:57.616Z,15.60
2019-05-30T08:01:32.718Z,15.60
2019-05-30T08:04:03.441Z,15.60
2019-05-30T08:06:34.119Z,15.70
2019-05-30T08:09:07.052Z,15.90
2019-05-30T08:11:39.903Z,16.00
2019-05-30T08:14:12.528Z,16.00
2019-05-30T08:16:44.341Z,16.20
2019-05-30T08:19:16.260Z,16.20
2019-05-30T08:21:46.865Z,16.40
2019-05-30T08:24:17.317Z,16.20
2019-05-30T08:26:48.017Z,16.20
2019-05-30T08:29:19.890Z,16.10
2019-05-30T08:31:54.656Z,16.20
2019-05-30T08:34:25.474Z,16.00
2019-05-30T08:36:56.177Z,16.10
2019-05-30T08:39:28.964Z,16.20
2019-05-30T08:41:59.889Z,16.20
2019-05-30T08:44:33.750Z,16.40
2019-05-30T08:47:04.754Z,16.30
2019-05-30T08:49:36.130Z,16.50
2019-05-30T08:52:06.901Z,16.50
2019-05-30T08:54:38.554Z,16.70
2019-05-30T08:57:09.294Z,16.70
2019-05-30T08:59:40.729Z,16.80
2019-05-30T09:02:11.714Z,16.90
2019-05-30T09:04:43.930Z,17.00
2019-05-30T09:07:17.725Z,17.00
2019-05-30T09:09:51.625Z,17.10
2019-05-30T09:12:23.064Z,17.30
2019-05-30T09:14:58.443Z,17.40
2019-05-30T09:17:29.670Z,17.40
2019-05-30T09:20:00.285Z,17.40
2019-05-30T09:22:31.145Z,17.40
2019-05-30T09:25:02.422Z,17.30
2019-05-30T09:27:35.095Z,17.40
2019-05-30T09:30:07.135Z,17.40
2019-05-30T09:32:39.409Z,17.60
2019-05-30T09:35:11.238Z,17.60
2019-05-30T09:37:42.411Z,17.80
2019-05-30T09:40:15.934Z,17.90
2019-05-30T09:42:50.246Z,17.90
2019-05-30T09:45:24.053Z,18.00
2019-05-30T09:47:54.931Z,18.00
2019-05-30T09:50:25.469Z,18.00
2019-05-30T09:52:55.914Z,17.90
2019-05-30T09:55:28.823Z,18.00
2019-05-30T09:58:01.612Z,18.00
2019-05-30T10:00:36.578Z,18.20
2019-05-30T10:03:07.381Z,18.20
2019-05-30T10:05:38.074Z,18.00
2019-05-30T10:08:09.259Z,18.20
2019-05-30T10:10:45.643Z,18.10
2019-05-30T10:13:15.319Z,18.20
2019-05-30T10:15:46.921Z,18.40
2019-05-30T10:18:17.714Z,18.40
2019-05-30T10:20:51.953Z,18.30
2019-05-30T10:23:24.607Z,18.30
2019-05-30T10:25:55.349Z,18.30
2019-05-30T10:28:25.934Z,18.40
2019-05-30T10:30:59.269Z,18.20
2019-05-30T10:33:29.359Z,18.20
2019-05-30T10:36:00.230Z,18.10
2019-05-30T10:38:31.010Z,18.20
2019-05-30T10:41:04.475Z,18.50
2019-05-30T10:43:35.372Z,18.40
2019-05-30T10:46:05.917Z,18.40
2019-05-30T10:48:36.381Z,18.50
2019-05-30T10:51:08.297Z,18.60
2019-05-30T10:53:41.068Z,18.40
2019-05-30T10:56:11.801Z,18.50
2019-05-30T10:58:42.413Z,18.40
2019-05-30T11:01:13.177Z,18.30
2019-05-30T11:03:44.447Z,18.30
2019-05-30T11:06:34.775Z,18.20
2019-05-30T11:09:07.387Z,18.30
2019-05-30T11:11:38.675Z,18.40
2019-05-30T11:14:12.078Z,18.40
2019-05-30T11:16:43.036Z,18.60
2019-05-30T11:19:13.959Z,18.70
2019-05-30T11:21:46.059Z,18.60
2019-05-30T11:24:17.260Z,18.60
2019-05-30T11:26:50.432Z,18.60
2019-05-30T11:29:20.092Z,18.70
2019-05-30T11:31:51.364Z,18.60
2019-05-30T11:34:25.563Z,18.60
2019-05-30T11:36:57.165Z,18.70
2019-05-30T11:39:28.103Z,18.80
2019-05-30T11:41:59.540Z,18.80
2019-05-30T11:44:32.430Z,18.80
2019-05-30T11:47:02.791Z,18.70
2019-05-30T11:49:34.385Z,18.70
2019-05-30T11:52:05.459Z,18.90
2019-05-30T11:54:36.346Z,18.70
2019-05-30T11:57:06.988Z,18.50
2019-05-30T11:59:37.589Z,18.50
2019-05-30T12:02:14.191Z,18.30
2019-05-30T12:04:45.395Z,18.40
2019-05-30T12:07:16.068Z,18.40
2019-05-30T12:09:46.864Z,18.40
2019-05-30T12:12:17.811Z,18.20
2019-05-30T12:14:55.097Z,18.30
2019-05-30T12:17:32.151Z,18.60
2019-05-30T12:20:09.108Z,18.70
2019-05-30T12:22:44.046Z,18.60
2019-05-30T12:25:16.265Z,18.70
2019-05-30T12:27:48.292Z,18.70
2019-05-30T12:30:21.161Z,18.60
2019-05-30T12:32:54.180Z,18.60
2019-05-30T12:35:27.339Z,18.70
2019-05-30T12:38:02.485Z,18.60
2019-05-30T12:40:36.434Z,18.80
2019-05-30T12:43:08.062Z,18.90
2019-05-30T12:45:40.767Z,19.00
2019-05-30T12:48:14.924Z,19.20
2019-05-30T12:50:49.950Z,19.40
2019-05-30T12:53:23.561Z,19.50
2019-05-30T12:55:54.589Z,19.50
2019-05-30T12:58:25.105Z,19.80
2019-05-30T13:00:57.318Z,19.80
2019-05-30T13:03:29.750Z,19.80
2019-05-30T13:06:04.959Z,19.70
2019-05-30T13:08:38.730Z,19.70
2019-05-30T13:11:13.318Z,19.90
2019-05-30T13:13:44.762Z,20.00
2019-05-30T13:16:17.924Z,19.90
2019-05-30T13:18:48.409Z,19.80
2019-05-30T13:21:19.453Z,19.90
2019-05-30T13:23:51.649Z,20.00
2019-05-30T13:26:23.296Z,20.20
2019-05-30T13:28:55.950Z,20.10
2019-05-30T13:31:27.366Z,20.10
2019-05-30T13:33:58.710Z,20.00
2019-05-30T13:36:29.591Z,20.10
2019-05-30T13:39:01.149Z,20.30
2019-05-30T13:41:32.035Z,20.20
2019-05-30T13:44:04.495Z,20.20
2019-05-30T13:46:36.743Z,20.30
2019-05-30T13:49:08.784Z,20.30
2019-05-30T13:51:39.585Z,20.50
2019-05-30T13:54:11.942Z,20.30
2019-05-30T13:56:43.797Z,20.10
2019-05-30T13:59:17.506Z,20.20
2019-05-30T14:01:48.267Z,20.10
2019-05-30T14:04:18.723Z,20.30
2019-05-30T14:06:49.881Z,20.40
2019-05-30T14:09:20.368Z,20.40
2019-05-30T14:11:51.182Z,20.70
2019-05-30T14:14:22.143Z,20.60
2019-05-30T14:16:53.325Z,20.70
2019-05-30T14:19:25.194Z,20.80
2019-05-30T14:21:56.290Z,20.70
2019-05-30T14:24:27.270Z,20.60
2019-05-30T14:26:57.756Z,20.50
2019-05-30T14:29:31.055Z,20.60
2019-05-30T14:32:02.284Z,20.60
2019-05-30T14:34:35.124Z,20.60
2019-05-30T14:37:08.203Z,20.60
2019-05-30T14:39:38.961Z,20.70
2019-05-30T14:42:09.580Z,20.90
2019-05-30T14:44:39.979Z,20.80
2019-05-30T14:47:12.284Z,20.90
2019-05-30T14:49:43.082Z,20.90
2019-05-30T14:52:14.190Z,21.00
2019-05-30T14:54:47.261Z,20.80
2019-05-30T14:57:21.658Z,20.70
2019-05-30T14:59:52.109Z,20.80
2019-05-30T15:02:24.031Z,20.70
2019-05-30T15:04:55.766Z,20.60
2019-05-30T15:07:26.674Z,20.60
2019-05-30T15:09:57.365Z,20.70
2019-05-30T15:12:27.938Z,20.80
2019-05-30T15:14:58.463Z,20.80
2019-05-30T15:17:29.381Z,20.90
2019-05-30T15:19:59.813Z,20.80
2019-05-30T15:22:30.941Z,20.90
2019-05-30T15:25:02.072Z,20.90
2019-05-30T15:27:32.951Z,20.90
2019-05-30T15:30:03.824Z,20.90
2019-05-30T15:32:35.651Z,21.10
2019-05-30T15:35:08.641Z,21.00
2019-05-30T15:37:42.282Z,21.20
2019-05-30T15:40:13.089Z,21.40
2019-05-30T15:42:44.017Z,21.30
2019-05-30T15:45:17.981Z,21.20
2019-05-30T15:47:49.026Z,21.40
2019-05-30T15:50:19.993Z,21.30
2019-05-30T15:52:50.485Z,21.30
2019-05-30T15:55:23.240Z,21.10
2019-05-30T15:57:55.656Z,21.10
2019-05-30T16:00:26.377Z,21.10
2019-05-30T16:02:57.324Z,20.90
2019-05-30T16:05:27.807Z,20.80
2019-05-30T16:07:58.851Z,20.90
2019-05-30T16:10:29.605Z,20.80
2019-05-30T16:12:59.996Z,20.90
2019-05-30T16:15:30.732Z,20.80
2019-05-30T16:18:01.769Z,21.00
2019-05-30T16:20:32.444Z,21.10
2019-05-30T16:23:03.066Z,20.80
2019-05-30T16:25:33.676Z,20.70
2019-05-30T16:28:05.316Z,20.90
2019-05-30T16:30:36.458Z,20.80
2019-05-30T16:33:06.984Z,20.90
2019-05-30T16:35:37.502Z,20.90
2019-05-30T16:38:08.106Z,20.80
2019-05-30T16:40:38.607Z,20.60
2019-05-30T16:43:09.216Z,20.60
2019-05-30T16:45:40.273Z,20.70
2019-05-30T16:48:12.523Z,20.70
2019-05-30T16:50:43.167Z,20.80
2019-05-30T16:53:14.911Z,20.70
2019-05-30T16:55:46.210Z,20.60
2019-05-30T16:58:17.765Z,20.60
2019-05-30T17:00:51.706Z,20.80
2019-05-30T17:03:26.114Z,20.60
2019-05-30T17:05:57.526Z,20.70
2019-05-30T17:08:28.211Z,20.60
2019-05-30T17:10:59.072Z,20.60
2019-05-30T17:13:31.337Z,20.50
2019-05-30T17:16:02.338Z,20.50
2019-05-30T17:18:33.359Z,20.50
2019-05-30T17:21:04.475Z,20.50
2019-05-30T17:23:35.315Z,20.60
2019-05-30T17:26:07.396Z,20.70
2019-05-30T17:28:38.536Z,20.90
2019-05-30T17:31:09.105Z,20.70
2019-05-30T17:33:41.372Z,20.60
2019-05-30T17:36:11.774Z,20.60
2019-05-30T17:38:42.555Z,20.50
2019-05-30T17:41:14.370Z,20.60
2019-05-30T17:43:45.014Z,20.40
2019-05-30T17:46:15.450Z,20.40
2019-05-30T17:48:46.307Z,20.30
2019-05-30T17:51:19.665Z,20.20
2019-05-30T17:53:55.181Z,20.30
2019-05-30T17:56:26.112Z,20.30
2019-05-30T17:58:57.361Z,20.20
2019-05-30T18:01:30.646Z,20.20
2019-05-30T18:04:04.148Z,20.20
2019-05-30T18:06:34.701Z,20.00
2019-05-30T18:09:07.332Z,19.90
2019-05-30T18:11:41.244Z,19.90
2019-05-30T18:14:16.636Z,19.90
2019-05-30T18:16:50.097Z,19.90
2019-05-30T18:19:21.172Z,20.00
2019-05-30T18:21:51.933Z,19.80
2019-05-30T18:24:23.631Z,19.70
2019-05-30T18:26:54.120Z,19.80
2019-05-30T18:29:26.042Z,19.70
2019-05-30T18:31:56.632Z,19.80
2019-05-30T18:34:28.390Z,19.90
2019-05-30T18:37:01.093Z,19.80
2019-05-30T18:39:34.036Z,19.90
2019-05-30T18:42:05.950Z,19.90
2019-05-30T18:44:36.570Z,19.80
2019-05-30T18:47:07.206Z,19.50
2019-05-30T18:49:41.298Z,19.50
2019-05-30T18:52:11.944Z,19.40
2019-05-30T18:54:43.034Z,19.50
2019-05-30T18:57:13.566Z,19.50
2019-05-30T18:59:44.423Z,19.40
2019-05-30T19:02:18.636Z,19.20
2019-05-30T19:04:50.077Z,19.10
2019-05-30T19:07:20.633Z,19.20
2019-05-30T19:09:53.919Z,19.10
2019-05-30T19:12:25.882Z,19.00
2019-05-30T19:14:59.531Z,19.10
2019-05-30T19:17:31.724Z,18.90
2019-05-30T19:20:04.572Z,18.90
2019-05-30T19:22:41.386Z,18.80
2019-05-30T19:25:10.731Z,18.90
2019-05-30T19:27:44.463Z,18.90
2019-05-30T19:30:16.095Z,18.80
2019-05-30T19:32:46.692Z,18.90
2019-05-30T19:35:19.617Z,18.80
2019-05-30T19:37:50.824Z,18.40
2019-05-30T19:40:24.902Z,18.50
2019-05-30T19:42:55.458Z,18.60
2019-05-30T19:45:27.823Z,18.40
2019-05-30T19:47:59.534Z,18.20
2019-05-30T19:50:30.865Z,18.20
2019-05-30T19:53:03.941Z,18.10
2019-05-30T19:55:37.547Z,18.10
2019-05-30T19:58:08.143Z,18.10
2019-05-30T20:00:54.464Z,18.20
2019-05-30T20:03:10.527Z,18.20
2019-05-30T20:05:41.527Z,18.20
2019-05-30T20:08:11.844Z,18.20
2019-05-30T20:10:43.392Z,18.10
2019-05-30T20:13:16.320Z,18.00
2019-05-30T20:15:46.994Z,18.00
2019-05-30T20:18:17.426Z,18.00
2019-05-30T20:20:57.510Z,17.90
2019-05-30T20:23:25.448Z,17.90
2019-05-30T20:25:55.989Z,17.70
2019-05-30T20:28:26.966Z,17.70
2019-05-30T20:30:57.857Z,17.70
2019-05-30T20:33:28.360Z,17.70
2019-05-30T20:35:59.153Z,17.50
2019-05-30T20:38:29.695Z,17.60
2019-05-30T20:41:00.303Z,17.60
2019-05-30T20:43:33.370Z,17.60
2019-05-30T20:46:20.147Z,17.60
2019-05-30T20:48:41.043Z,17.40
2019-05-30T20:51:20.784Z,17.30
2019-05-30T20:53:44.109Z,17.30
2019-05-30T20:56:15.170Z,17.30
2019-05-30T20:58:45.803Z,17.40
2019-05-30T21:01:16.795Z,17.40
2019-05-30T21:03:47.753Z,17.40
2019-05-30T21:06:18.532Z,17.30
2019-05-30T21:08:50.926Z,17.10
2019-05-30T21:11:23.802Z,17.10
2019-05-30T21:13:57.516Z,17.00
2019-05-30T21:16:30.219Z,17.10
2019-05-30T21:19:01.905Z,17.20
2019-05-30T21:21:35.923Z,17.10
2019-05-30T21:24:06.695Z,17.30
2019-05-30T21:26:38.647Z,17.20
2019-05-30T21:29:08.830Z,17.10
2019-05-30T21:31:40.151Z,17.10
2019-05-30T21:34:11.800Z,16.80
2019-05-30T21:36:44.149Z,16.70
2019-05-30T21:39:14.725Z,16.70
2019-05-30T21:41:46.414Z,16.60
2019-05-30T21:44:16.605Z,16.70
2019-05-30T21:46:47.000Z,16.50
2019-05-30T21:49:17.332Z,16.50
2019-05-30T21:51:47.909Z,16.40
2019-05-30T21:54:18.265Z,16.40
2019-05-30T21:56:50.193Z,16.30
2019-05-30T21:59:20.730Z,16.60
2019-05-30T22:01:57.020Z,16.40
2019-05-30T22:04:23.928Z,16.50
2019-05-30T22:06:54.393Z,16.40
2019-05-30T22:09:24.744Z,16.50
2019-05-30T22:11:55.329Z,16.20
2019-05-30T22:14:25.693Z,16.10
2019-05-30T22:16:56.148Z,16.10
2019-05-30T22:19:26.528Z,15.90
2019-05-30T22:21:59.625Z,16.10
2019-05-30T22:24:30.718Z,16.10
2019-05-30T22:27:01.117Z,16.00
2019-05-30T22:29:32.115Z,16.00
2019-05-30T22:32:02.468Z,16.00
2019-05-30T22:34:32.700Z,15.90
2019-05-30T22:37:03.013Z,15.90
2019-05-30T22:39:33.242Z,15.70
2019-05-30T22:42:04.358Z,15.70
2019-05-30T22:44:34.605Z,16.00
2019-05-30T22:47:04.949Z,15.80
2019-05-30T22:49:35.137Z,15.80
2019-05-30T22:52:05.977Z,15.60
2019-05-30T22:54:36.236Z,15.50
2019-05-30T22:57:06.756Z,15.60
2019-05-30T22:59:37.204Z,15.50
2019-05-30T23:02:07.490Z,15.40
2019-05-30T23:04:37.712Z,15.50
2019-05-30T23:07:07.995Z,15.30
2019-05-30T23:09:38.217Z,15.20
2019-05-30T23:12:08.790Z,15.10
2019-05-30T23:14:39.148Z,15.20
2019-05-30T23:17:09.494Z,15.20
2019-05-30T23:19:39.813Z,15.20
2019-05-30T23:22:10.402Z,15.30
2019-05-30T23:24:40.612Z,15.20
2019-05-30T23:27:11.003Z,15.10
2019-05-30T23:29:41.300Z,15.20
2019-05-30T23:32:11.968Z,15.30
2019-05-30T23:34:42.569Z,15.30
2019-05-30T23:37:12.874Z,15.30
2019-05-30T23:39:43.358Z,15.20
2019-05-30T23:42:14.590Z,15.10
2019-05-30T23:44:44.990Z,15.00
2019-05-30T23:47:15.520Z,15.10
2019-05-30T23:49:45.830Z,14.70
2019-05-30T23:52:16.479Z,14.80
2019-05-30T23:54:47.033Z,15.10
2019-05-30T23:57:17.388Z,14.90
2019-05-30T23:59:47.838Z,14.70
